sensor_id;sensor_type;location;lat;lon;timestamp;P1;durP1;ratioP1;P2;durP2;ratioP2
72797;SDS011;61084;55.816;37.036;2022-11-25T00:00:25;7.13;;;3.03;;
72797;SDS011;61084;55.816;37.036;2022-11-25T00:02:51;8.18;;;2.97;;
72797;SDS011;61084;55.816;37.036;2022-11-25T00:05:17;6.20;;;2.95;;
72797;SDS011;61084;55.816;37.036;2022-11-25T00:07:42;8.65;;;2.88;;
72797;SDS011;61084;55.816;37.036;2022-11-25T00:10:08;6.32;;;2.20;;
72797;SDS011;61084;55.816;37.036;2022-11-25T00:12:34;6.90;;;2.65;;
72797;SDS011;61084;55.816;37.036;2022-11-25T00:15:00;6.90;;;3.05;;
72797;SDS011;61084;55.816;37.036;2022-11-25T00:17:25;7.63;;;2.95;;
72797;SDS011;61084;55.816;37.036;2022-11-25T00:19:51;8.90;;;3.08;;
72797;SDS011;61084;55.816;37.036;2022-11-25T00:22:17;6.65;;;2.72;;
72797;SDS011;61084;55.816;37.036;2022-11-25T00:24:42;5.65;;;2.35;;
72797;SDS011;61084;55.816;37.036;2022-11-25T00:27:08;8.18;;;1.95;;
72797;SDS011;61084;55.816;37.036;2022-11-25T00:29:34;8.38;;;2.85;;
72797;SDS011;61084;55.816;37.036;2022-11-25T00:32:00;7.25;;;2.55;;
72797;SDS011;61084;55.816;37.036;2022-11-25T00:34:25;6.40;;;2.45;;
72797;SDS011;61084;55.816;37.036;2022-11-25T00:36:51;6.38;;;2.50;;
72797;SDS011;61084;55.816;37.036;2022-11-25T00:39:20;8.23;;;2.95;;
72797;SDS011;61084;55.816;37.036;2022-11-25T00:41:48;12.63;;;3.97;;
72797;SDS011;61084;55.816;37.036;2022-11-25T00:44:34;10.93;;;3.88;;
72797;SDS011;61084;55.816;37.036;2022-11-25T00:47:01;7.90;;;3.22;;
72797;SDS011;61084;55.816;37.036;2022-11-25T00:49:28;6.03;;;3.05;;
72797;SDS011;61084;55.816;37.036;2022-11-25T00:51:54;5.35;;;2.40;;
72797;SDS011;61084;55.816;37.036;2022-11-25T00:54:20;6.50;;;2.45;;
72797;SDS011;61084;55.816;37.036;2022-11-25T00:56:46;4.15;;;2.08;;
72797;SDS011;61084;55.816;37.036;2022-11-25T00:59:12;6.00;;;2.42;;
72797;SDS011;61084;55.816;37.036;2022-11-25T01:01:37;6.32;;;2.22;;
72797;SDS011;61084;55.816;37.036;2022-11-25T01:04:04;3.45;;;2.08;;
72797;SDS011;61084;55.816;37.036;2022-11-25T01:06:49;7.85;;;2.00;;
72797;SDS011;61084;55.816;37.036;2022-11-25T01:09:15;7.63;;;2.88;;
72797;SDS011;61084;55.816;37.036;2022-11-25T01:11:41;6.38;;;2.50;;
72797;SDS011;61084;55.816;37.036;2022-11-25T01:14:08;7.50;;;3.08;;
72797;SDS011;61084;55.816;37.036;2022-11-25T01:16:34;7.55;;;2.75;;
72797;SDS011;61084;55.816;37.036;2022-11-25T01:19:01;6.90;;;2.80;;
72797;SDS011;61084;55.816;37.036;2022-11-25T01:21:31;4.75;;;2.28;;
72797;SDS011;61084;55.816;37.036;2022-11-25T01:23:58;4.93;;;2.45;;
72797;SDS011;61084;55.816;37.036;2022-11-25T01:26:26;6.68;;;2.80;;
72797;SDS011;61084;55.816;37.036;2022-11-25T01:28:53;5.90;;;2.65;;
72797;SDS011;61084;55.816;37.036;2022-11-25T01:31:21;6.13;;;2.53;;
72797;SDS011;61084;55.816;37.036;2022-11-25T01:33:56;7.50;;;2.90;;
72797;SDS011;61084;55.816;37.036;2022-11-25T01:36:27;6.80;;;3.08;;
72797;SDS011;61084;55.816;37.036;2022-11-25T01:38:55;9.35;;;2.90;;
72797;SDS011;61084;55.816;37.036;2022-11-25T01:41:22;6.57;;;2.80;;
72797;SDS011;61084;55.816;37.036;2022-11-25T01:46:42;3.92;;;2.40;;
72797;SDS011;61084;55.816;37.036;2022-11-25T01:49:11;6.47;;;3.25;;
72797;SDS011;61084;55.816;37.036;2022-11-25T01:51:50;5.25;;;2.58;;
72797;SDS011;61084;55.816;37.036;2022-11-25T01:54:30;3.83;;;2.10;;
72797;SDS011;61084;55.816;37.036;2022-11-25T01:57:02;4.63;;;2.25;;
72797;SDS011;61084;55.816;37.036;2022-11-25T01:59:39;5.63;;;2.70;;
72797;SDS011;61084;55.816;37.036;2022-11-25T02:02:09;8.82;;;2.80;;
72797;SDS011;61084;55.816;37.036;2022-11-25T02:04:37;6.18;;;2.58;;
72797;SDS011;61084;55.816;37.036;2022-11-25T02:07:19;5.72;;;1.98;;
72797;SDS011;61084;55.816;37.036;2022-11-25T02:09:56;4.50;;;2.20;;
72797;SDS011;61084;55.816;37.036;2022-11-25T02:12:24;7.55;;;2.42;;
72797;SDS011;61084;55.816;37.036;2022-11-25T02:15:19;5.38;;;2.58;;
72797;SDS011;61084;55.816;37.036;2022-11-25T02:17:46;5.68;;;2.58;;
72797;SDS011;61084;55.816;37.036;2022-11-25T02:20:13;5.80;;;2.40;;
72797;SDS011;61084;55.816;37.036;2022-11-25T02:25:42;5.60;;;2.75;;
72797;SDS011;61084;55.816;37.036;2022-11-25T02:28:14;7.45;;;2.45;;
72797;SDS011;61084;55.816;37.036;2022-11-25T02:30:42;5.70;;;1.98;;
72797;SDS011;61084;55.816;37.036;2022-11-25T02:33:10;6.13;;;2.90;;
72797;SDS011;61084;55.816;37.036;2022-11-25T02:35:41;6.72;;;3.00;;
72797;SDS011;61084;55.816;37.036;2022-11-25T02:38:09;8.07;;;2.97;;
72797;SDS011;61084;55.816;37.036;2022-11-25T02:40:46;9.20;;;2.92;;
72797;SDS011;61084;55.816;37.036;2022-11-25T02:43:17;10.20;;;3.53;;
72797;SDS011;61084;55.816;37.036;2022-11-25T02:48:18;7.30;;;2.88;;
72797;SDS011;61084;55.816;37.036;2022-11-25T02:50:45;8.70;;;3.30;;
72797;SDS011;61084;55.816;37.036;2022-11-25T02:53:12;7.78;;;3.13;;
72797;SDS011;61084;55.816;37.036;2022-11-25T02:55:38;8.52;;;3.03;;
72797;SDS011;61084;55.816;37.036;2022-11-25T02:58:04;5.38;;;2.47;;
72797;SDS011;61084;55.816;37.036;2022-11-25T03:00:31;9.30;;;3.65;;
72797;SDS011;61084;55.816;37.036;2022-11-25T03:02:57;7.35;;;3.58;;
72797;SDS011;61084;55.816;37.036;2022-11-25T03:05:23;8.13;;;3.47;;
72797;SDS011;61084;55.816;37.036;2022-11-25T03:07:49;7.35;;;3.20;;
72797;SDS011;61084;55.816;37.036;2022-11-25T03:10:18;9.52;;;3.97;;
72797;SDS011;61084;55.816;37.036;2022-11-25T03:12:44;8.48;;;3.50;;
72797;SDS011;61084;55.816;37.036;2022-11-25T03:15:10;6.65;;;3.38;;
72797;SDS011;61084;55.816;37.036;2022-11-25T03:17:36;12.20;;;3.72;;
72797;SDS011;61084;55.816;37.036;2022-11-25T03:20:02;7.28;;;3.25;;
72797;SDS011;61084;55.816;37.036;2022-11-25T03:22:30;9.35;;;3.60;;
72797;SDS011;61084;55.816;37.036;2022-11-25T03:24:56;7.45;;;3.53;;
72797;SDS011;61084;55.816;37.036;2022-11-25T03:27:22;9.02;;;3.47;;
72797;SDS011;61084;55.816;37.036;2022-11-25T03:29:48;9.50;;;3.95;;
72797;SDS011;61084;55.816;37.036;2022-11-25T03:32:14;11.80;;;4.28;;
72797;SDS011;61084;55.816;37.036;2022-11-25T03:34:40;13.15;;;3.92;;
72797;SDS011;61084;55.816;37.036;2022-11-25T03:37:06;6.90;;;3.28;;
72797;SDS011;61084;55.816;37.036;2022-11-25T03:39:33;11.25;;;4.47;;
72797;SDS011;61084;55.816;37.036;2022-11-25T03:41:59;10.50;;;3.97;;
72797;SDS011;61084;55.816;37.036;2022-11-25T03:44:25;9.32;;;4.25;;
72797;SDS011;61084;55.816;37.036;2022-11-25T03:46:51;11.77;;;4.30;;
72797;SDS011;61084;55.816;37.036;2022-11-25T03:49:17;7.03;;;3.40;;
72797;SDS011;61084;55.816;37.036;2022-11-25T03:51:43;9.15;;;3.83;;
72797;SDS011;61084;55.816;37.036;2022-11-25T03:54:09;9.90;;;4.82;;
72797;SDS011;61084;55.816;37.036;2022-11-25T03:56:55;12.43;;;4.10;;
72797;SDS011;61084;55.816;37.036;2022-11-25T03:59:21;10.20;;;3.80;;
72797;SDS011;61084;55.816;37.036;2022-11-25T04:01:49;10.98;;;4.35;;
72797;SDS011;61084;55.816;37.036;2022-11-25T04:04:15;10.88;;;3.97;;
72797;SDS011;61084;55.816;37.036;2022-11-25T04:06:41;9.63;;;4.20;;
72797;SDS011;61084;55.816;37.036;2022-11-25T04:09:07;10.35;;;4.13;;
72797;SDS011;61084;55.816;37.036;2022-11-25T04:11:35;8.48;;;4.00;;
72797;SDS011;61084;55.816;37.036;2022-11-25T04:14:22;10.80;;;4.72;;
72797;SDS011;61084;55.816;37.036;2022-11-25T04:16:48;13.40;;;4.85;;
72797;SDS011;61084;55.816;37.036;2022-11-25T04:19:14;10.85;;;4.13;;
72797;SDS011;61084;55.816;37.036;2022-11-25T04:21:40;11.63;;;4.32;;
72797;SDS011;61084;55.816;37.036;2022-11-25T04:24:05;12.25;;;4.80;;
72797;SDS011;61084;55.816;37.036;2022-11-25T04:26:32;12.25;;;4.65;;
72797;SDS011;61084;55.816;37.036;2022-11-25T04:28:58;14.00;;;4.57;;
72797;SDS011;61084;55.816;37.036;2022-11-25T04:31:24;9.90;;;4.53;;
72797;SDS011;61084;55.816;37.036;2022-11-25T04:33:50;12.60;;;4.30;;
72797;SDS011;61084;55.816;37.036;2022-11-25T04:36:16;11.02;;;4.43;;
72797;SDS011;61084;55.816;37.036;2022-11-25T04:38:42;10.90;;;4.47;;
72797;SDS011;61084;55.816;37.036;2022-11-25T04:41:08;15.35;;;4.80;;
72797;SDS011;61084;55.816;37.036;2022-11-25T04:43:38;11.30;;;4.78;;
72797;SDS011;61084;55.816;37.036;2022-11-25T04:46:12;13.85;;;4.95;;
72797;SDS011;61084;55.816;37.036;2022-11-25T04:48:45;9.85;;;4.32;;
72797;SDS011;61084;55.816;37.036;2022-11-25T04:53:38;12.70;;;4.88;;
72797;SDS011;61084;55.816;37.036;2022-11-25T04:56:06;15.70;;;5.93;;
72797;SDS011;61084;55.816;37.036;2022-11-25T04:58:40;14.82;;;5.38;;
72797;SDS011;61084;55.816;37.036;2022-11-25T05:01:26;16.17;;;5.70;;
72797;SDS011;61084;55.816;37.036;2022-11-25T05:03:58;14.48;;;4.82;;
72797;SDS011;61084;55.816;37.036;2022-11-25T05:06:26;14.43;;;5.18;;
72797;SDS011;61084;55.816;37.036;2022-11-25T05:08:53;11.10;;;4.93;;
72797;SDS011;61084;55.816;37.036;2022-11-25T05:11:20;9.10;;;3.90;;
72797;SDS011;61084;55.816;37.036;2022-11-25T05:13:46;12.48;;;5.18;;
72797;SDS011;61084;55.816;37.036;2022-11-25T05:16:12;20.30;;;5.82;;
72797;SDS011;61084;55.816;37.036;2022-11-25T05:18:38;16.48;;;6.07;;
72797;SDS011;61084;55.816;37.036;2022-11-25T05:21:04;14.55;;;5.90;;
72797;SDS011;61084;55.816;37.036;2022-11-25T05:23:35;11.82;;;5.65;;
72797;SDS011;61084;55.816;37.036;2022-11-25T05:26:02;14.07;;;5.68;;
72797;SDS011;61084;55.816;37.036;2022-11-25T05:28:49;13.15;;;5.70;;
72797;SDS011;61084;55.816;37.036;2022-11-25T05:31:15;14.30;;;5.55;;
72797;SDS011;61084;55.816;37.036;2022-11-25T05:33:41;17.02;;;5.97;;
72797;SDS011;61084;55.816;37.036;2022-11-25T05:36:09;12.70;;;5.07;;
72797;SDS011;61084;55.816;37.036;2022-11-25T05:38:45;13.98;;;5.57;;
72797;SDS011;61084;55.816;37.036;2022-11-25T05:41:17;9.88;;;4.05;;
72797;SDS011;61084;55.816;37.036;2022-11-25T05:43:44;12.40;;;4.97;;
72797;SDS011;61084;55.816;37.036;2022-11-25T05:46:11;9.05;;;3.83;;
72797;SDS011;61084;55.816;37.036;2022-11-25T05:48:43;9.27;;;4.00;;
72797;SDS011;61084;55.816;37.036;2022-11-25T05:51:09;12.82;;;4.80;;
72797;SDS011;61084;55.816;37.036;2022-11-25T05:53:36;14.02;;;5.80;;
72797;SDS011;61084;55.816;37.036;2022-11-25T05:56:03;15.82;;;5.50;;
72797;SDS011;61084;55.816;37.036;2022-11-25T05:58:53;16.20;;;5.50;;
72797;SDS011;61084;55.816;37.036;2022-11-25T06:01:20;12.82;;;4.97;;
72797;SDS011;61084;55.816;37.036;2022-11-25T06:03:47;12.50;;;4.82;;
72797;SDS011;61084;55.816;37.036;2022-11-25T06:06:15;16.73;;;5.35;;
72797;SDS011;61084;55.816;37.036;2022-11-25T06:08:42;14.43;;;4.88;;
72797;SDS011;61084;55.816;37.036;2022-11-25T06:11:10;11.60;;;4.80;;
72797;SDS011;61084;55.816;37.036;2022-11-25T06:13:39;11.90;;;4.47;;
72797;SDS011;61084;55.816;37.036;2022-11-25T06:16:10;11.18;;;4.32;;
72797;SDS011;61084;55.816;37.036;2022-11-25T06:18:38;12.77;;;4.63;;
72797;SDS011;61084;55.816;37.036;2022-11-25T06:21:06;15.05;;;5.13;;
72797;SDS011;61084;55.816;37.036;2022-11-25T06:23:33;11.90;;;5.18;;
72797;SDS011;61084;55.816;37.036;2022-11-25T06:26:07;15.55;;;5.15;;
72797;SDS011;61084;55.816;37.036;2022-11-25T06:28:46;15.90;;;5.10;;
72797;SDS011;61084;55.816;37.036;2022-11-25T06:31:14;11.43;;;4.32;;
72797;SDS011;61084;55.816;37.036;2022-11-25T06:33:52;9.95;;;4.65;;
72797;SDS011;61084;55.816;37.036;2022-11-25T06:36:19;15.13;;;3.67;;
72797;SDS011;61084;55.816;37.036;2022-11-25T06:38:47;8.63;;;3.85;;
72797;SDS011;61084;55.816;37.036;2022-11-25T06:41:14;12.48;;;4.20;;
72797;SDS011;61084;55.816;37.036;2022-11-25T06:43:40;15.00;;;5.15;;
72797;SDS011;61084;55.816;37.036;2022-11-25T06:46:07;13.10;;;5.07;;
72797;SDS011;61084;55.816;37.036;2022-11-25T06:48:35;12.48;;;4.43;;
72797;SDS011;61084;55.816;37.036;2022-11-25T06:51:03;11.88;;;5.30;;
72797;SDS011;61084;55.816;37.036;2022-11-25T06:53:31;15.88;;;5.85;;
72797;SDS011;61084;55.816;37.036;2022-11-25T06:58:28;15.30;;;5.57;;
72797;SDS011;61084;55.816;37.036;2022-11-25T07:01:30;14.00;;;4.85;;
72797;SDS011;61084;55.816;37.036;2022-11-25T07:03:51;14.50;;;5.47;;
72797;SDS011;61084;55.816;37.036;2022-11-25T07:06:35;11.95;;;4.65;;
72797;SDS011;61084;55.816;37.036;2022-11-25T07:09:01;13.73;;;4.88;;
72797;SDS011;61084;55.816;37.036;2022-11-25T07:11:29;14.02;;;5.10;;
72797;SDS011;61084;55.816;37.036;2022-11-25T07:14:06;14.90;;;5.35;;
72797;SDS011;61084;55.816;37.036;2022-11-25T07:16:36;12.57;;;5.07;;
72797;SDS011;61084;55.816;37.036;2022-11-25T07:19:04;9.88;;;4.47;;
72797;SDS011;61084;55.816;37.036;2022-11-25T07:21:30;13.77;;;5.43;;
72797;SDS011;61084;55.816;37.036;2022-11-25T07:23:57;11.73;;;4.47;;
72797;SDS011;61084;55.816;37.036;2022-11-25T07:26:43;13.35;;;5.05;;
72797;SDS011;61084;55.816;37.036;2022-11-25T07:29:11;13.63;;;4.55;;
72797;SDS011;61084;55.816;37.036;2022-11-25T07:31:39;11.77;;;4.30;;
72797;SDS011;61084;55.816;37.036;2022-11-25T07:34:11;12.95;;;4.57;;
72797;SDS011;61084;55.816;37.036;2022-11-25T07:36:45;13.27;;;4.03;;
72797;SDS011;61084;55.816;37.036;2022-11-25T07:39:13;15.02;;;5.10;;
72797;SDS011;61084;55.816;37.036;2022-11-25T07:41:41;13.65;;;4.43;;
72797;SDS011;61084;55.816;37.036;2022-11-25T07:44:09;13.55;;;4.60;;
72797;SDS011;61084;55.816;37.036;2022-11-25T07:46:47;13.80;;;4.93;;
72797;SDS011;61084;55.816;37.036;2022-11-25T07:49:15;15.38;;;5.57;;
72797;SDS011;61084;55.816;37.036;2022-11-25T07:51:46;12.35;;;4.82;;
72797;SDS011;61084;55.816;37.036;2022-11-25T07:54:13;11.10;;;4.68;;
72797;SDS011;61084;55.816;37.036;2022-11-25T07:56:40;13.27;;;5.28;;
72797;SDS011;61084;55.816;37.036;2022-11-25T07:59:08;13.23;;;4.75;;
72797;SDS011;61084;55.816;37.036;2022-11-25T08:01:37;10.40;;;4.38;;
72797;SDS011;61084;55.816;37.036;2022-11-25T08:04:02;12.73;;;4.70;;
72797;SDS011;61084;55.816;37.036;2022-11-25T08:06:29;13.90;;;4.88;;
72797;SDS011;61084;55.816;37.036;2022-11-25T08:08:55;11.75;;;3.75;;
72797;SDS011;61084;55.816;37.036;2022-11-25T08:11:26;12.93;;;4.90;;
72797;SDS011;61084;55.816;37.036;2022-11-25T08:13:54;14.88;;;4.57;;
72797;SDS011;61084;55.816;37.036;2022-11-25T08:16:21;11.25;;;5.00;;
72797;SDS011;61084;55.816;37.036;2022-11-25T08:18:48;13.85;;;4.25;;
72797;SDS011;61084;55.816;37.036;2022-11-25T08:21:14;13.13;;;4.75;;
72797;SDS011;61084;55.816;37.036;2022-11-25T08:23:41;14.02;;;4.65;;
72797;SDS011;61084;55.816;37.036;2022-11-25T08:26:09;12.35;;;4.60;;
72797;SDS011;61084;55.816;37.036;2022-11-25T08:28:37;14.75;;;5.55;;
72797;SDS011;61084;55.816;37.036;2022-11-25T08:31:08;12.18;;;4.85;;
72797;SDS011;61084;55.816;37.036;2022-11-25T08:33:39;11.50;;;4.43;;
72797;SDS011;61084;55.816;37.036;2022-11-25T08:36:05;12.13;;;4.35;;
72797;SDS011;61084;55.816;37.036;2022-11-25T08:38:32;11.82;;;5.03;;
72797;SDS011;61084;55.816;37.036;2022-11-25T08:40:57;13.07;;;4.65;;
72797;SDS011;61084;55.816;37.036;2022-11-25T08:43:23;11.35;;;4.82;;
72797;SDS011;61084;55.816;37.036;2022-11-25T08:45:50;19.20;;;5.55;;
72797;SDS011;61084;55.816;37.036;2022-11-25T08:48:16;13.40;;;5.05;;
72797;SDS011;61084;55.816;37.036;2022-11-25T08:50:46;12.00;;;4.10;;
72797;SDS011;61084;55.816;37.036;2022-11-25T08:53:14;13.20;;;4.88;;
72797;SDS011;61084;55.816;37.036;2022-11-25T08:55:41;18.80;;;5.30;;
72797;SDS011;61084;55.816;37.036;2022-11-25T08:58:07;11.57;;;4.75;;
72797;SDS011;61084;55.816;37.036;2022-11-25T09:00:44;11.48;;;4.07;;
72797;SDS011;61084;55.816;37.036;2022-11-25T09:05:39;11.07;;;4.10;;
72797;SDS011;61084;55.816;37.036;2022-11-25T09:08:07;11.93;;;4.30;;
72797;SDS011;61084;55.816;37.036;2022-11-25T09:10:34;10.40;;;4.72;;
72797;SDS011;61084;55.816;37.036;2022-11-25T09:13:01;11.60;;;4.38;;
72797;SDS011;61084;55.816;37.036;2022-11-25T09:15:27;13.20;;;5.05;;
72797;SDS011;61084;55.816;37.036;2022-11-25T09:17:57;13.57;;;5.00;;
72797;SDS011;61084;55.816;37.036;2022-11-25T09:20:25;12.13;;;4.47;;
72797;SDS011;61084;55.816;37.036;2022-11-25T09:22:51;10.57;;;3.70;;
72797;SDS011;61084;55.816;37.036;2022-11-25T09:25:16;11.35;;;4.10;;
72797;SDS011;61084;55.816;37.036;2022-11-25T09:27:42;12.82;;;5.10;;
72797;SDS011;61084;55.816;37.036;2022-11-25T09:30:08;10.32;;;3.90;;
72797;SDS011;61084;55.816;37.036;2022-11-25T09:32:34;13.25;;;4.53;;
72797;SDS011;61084;55.816;37.036;2022-11-25T09:35:00;10.65;;;3.60;;
72797;SDS011;61084;55.816;37.036;2022-11-25T09:39:53;10.80;;;4.25;;
72797;SDS011;61084;55.816;37.036;2022-11-25T09:48:20;10.65;;;3.90;;
72797;SDS011;61084;55.816;37.036;2022-11-25T09:51:06;13.38;;;4.72;;
72797;SDS011;61084;55.816;37.036;2022-11-25T09:56:35;11.00;;;4.72;;
72797;SDS011;61084;55.816;37.036;2022-11-25T10:01:52;13.10;;;4.32;;
72797;SDS011;61084;55.816;37.036;2022-11-25T10:07:07;13.13;;;4.75;;
72797;SDS011;61084;55.816;37.036;2022-11-25T10:09:40;12.32;;;3.97;;
72797;SDS011;61084;55.816;37.036;2022-11-25T10:14:48;13.38;;;5.13;;
72797;SDS011;61084;55.816;37.036;2022-11-25T10:22:26;11.63;;;4.70;;
72797;SDS011;61084;55.816;37.036;2022-11-25T10:24:59;9.10;;;3.42;;
72797;SDS011;61084;55.816;37.036;2022-11-25T10:27:36;11.90;;;4.45;;
72797;SDS011;61084;55.816;37.036;2022-11-25T10:30:05;14.85;;;5.45;;
72797;SDS011;61084;55.816;37.036;2022-11-25T10:33:09;11.70;;;4.75;;
72797;SDS011;61084;55.816;37.036;2022-11-25T10:38:40;16.02;;;4.18;;
72797;SDS011;61084;55.816;37.036;2022-11-25T10:43:41;10.63;;;4.93;;
72797;SDS011;61084;55.816;37.036;2022-11-25T10:46:34;11.20;;;4.93;;
72797;SDS011;61084;55.816;37.036;2022-11-25T10:51:49;11.80;;;4.93;;
72797;SDS011;61084;55.816;37.036;2022-11-25T10:54:17;12.27;;;5.30;;
72797;SDS011;61084;55.816;37.036;2022-11-25T10:59:24;13.30;;;4.72;;
72797;SDS011;61084;55.816;37.036;2022-11-25T11:05:14;11.38;;;4.80;;
72797;SDS011;61084;55.816;37.036;2022-11-25T11:10:45;12.05;;;5.32;;
72797;SDS011;61084;55.816;37.036;2022-11-25T11:13:22;14.10;;;5.28;;
72797;SDS011;61084;55.816;37.036;2022-11-25T11:15:49;14.50;;;4.82;;
72797;SDS011;61084;55.816;37.036;2022-11-25T11:21:00;10.68;;;4.47;;
72797;SDS011;61084;55.816;37.036;2022-11-25T11:23:27;10.77;;;4.55;;
72797;SDS011;61084;55.816;37.036;2022-11-25T11:28:28;12.27;;;4.90;;
72797;SDS011;61084;55.816;37.036;2022-11-25T11:33:33;16.85;;;6.65;;
72797;SDS011;61084;55.816;37.036;2022-11-25T11:36:09;14.48;;;5.05;;
72797;SDS011;61084;55.816;37.036;2022-11-25T12:04:24;15.65;;;4.93;;
72797;SDS011;61084;55.816;37.036;2022-11-25T12:07:19;15.95;;;5.32;;
72797;SDS011;61084;55.816;37.036;2022-11-25T12:09:58;11.02;;;4.50;;
72797;SDS011;61084;55.816;37.036;2022-11-25T12:12:41;13.00;;;4.43;;
72797;SDS011;61084;55.816;37.036;2022-11-25T12:15:40;19.42;;;5.57;;
72797;SDS011;61084;55.816;37.036;2022-11-25T12:20:52;13.07;;;4.80;;
72797;SDS011;61084;55.816;37.036;2022-11-25T12:23:34;19.50;;;7.32;;
72797;SDS011;61084;55.816;37.036;2022-11-25T12:26:10;15.60;;;5.40;;
72797;SDS011;61084;55.816;37.036;2022-11-25T12:28:46;13.88;;;5.50;;
72797;SDS011;61084;55.816;37.036;2022-11-25T12:31:25;17.42;;;5.78;;
72797;SDS011;61084;55.816;37.036;2022-11-25T12:34:09;16.60;;;6.88;;
72797;SDS011;61084;55.816;37.036;2022-11-25T12:36:39;19.50;;;6.70;;
72797;SDS011;61084;55.816;37.036;2022-11-25T12:41:58;13.40;;;4.78;;
72797;SDS011;61084;55.816;37.036;2022-11-25T12:47:23;11.52;;;5.07;;
72797;SDS011;61084;55.816;37.036;2022-11-25T12:49:50;10.43;;;5.05;;
72797;SDS011;61084;55.816;37.036;2022-11-25T13:00:50;11.45;;;4.68;;
72797;SDS011;61084;55.816;37.036;2022-11-25T13:03:30;17.45;;;5.05;;
72797;SDS011;61084;55.816;37.036;2022-11-25T13:17:09;9.32;;;4.28;;
72797;SDS011;61084;55.816;37.036;2022-11-25T13:19:37;9.52;;;4.32;;
72797;SDS011;61084;55.816;37.036;2022-11-25T13:22:04;8.07;;;4.28;;
72797;SDS011;61084;55.816;37.036;2022-11-25T13:24:49;10.95;;;2.72;;
72797;SDS011;61084;55.816;37.036;2022-11-25T13:27:31;9.77;;;4.25;;
72797;SDS011;61084;55.816;37.036;2022-11-25T13:29:58;7.13;;;1.63;;
72797;SDS011;61084;55.816;37.036;2022-11-25T13:37:47;10.32;;;4.65;;
72797;SDS011;61084;55.816;37.036;2022-11-25T13:42:51;9.27;;;4.07;;
72797;SDS011;61084;55.816;37.036;2022-11-25T13:47:51;11.40;;;4.55;;
72797;SDS011;61084;55.816;37.036;2022-11-25T13:50:21;8.82;;;4.25;;
72797;SDS011;61084;55.816;37.036;2022-11-25T13:52:55;9.77;;;3.92;;
72797;SDS011;61084;55.816;37.036;2022-11-25T14:09:04;8.93;;;3.58;;
72797;SDS011;61084;55.816;37.036;2022-11-25T14:15:13;7.32;;;3.60;;
72797;SDS011;61084;55.816;37.036;2022-11-25T14:20:15;6.30;;;2.88;;
72797;SDS011;61084;55.816;37.036;2022-11-25T14:25:23;6.68;;;3.15;;
72797;SDS011;61084;55.816;37.036;2022-11-25T14:27:56;5.82;;;3.38;;
72797;SDS011;61084;55.816;37.036;2022-11-25T14:30:32;9.93;;;3.53;;
72797;SDS011;61084;55.816;37.036;2022-11-25T14:33:01;6.90;;;3.80;;
72797;SDS011;61084;55.816;37.036;2022-11-25T14:35:39;7.55;;;3.40;;
72797;SDS011;61084;55.816;37.036;2022-11-25T14:38:16;7.95;;;3.85;;
72797;SDS011;61084;55.816;37.036;2022-11-25T14:43:18;5.20;;;3.17;;
72797;SDS011;61084;55.816;37.036;2022-11-25T14:45:47;7.68;;;4.15;;
72797;SDS011;61084;55.816;37.036;2022-11-25T14:48:32;6.75;;;3.47;;
72797;SDS011;61084;55.816;37.036;2022-11-25T14:50:59;8.85;;;3.85;;
72797;SDS011;61084;55.816;37.036;2022-11-25T14:53:28;9.10;;;3.35;;
72797;SDS011;61084;55.816;37.036;2022-11-25T14:55:55;5.75;;;3.40;;
72797;SDS011;61084;55.816;37.036;2022-11-25T14:58:24;7.18;;;3.90;;
72797;SDS011;61084;55.816;37.036;2022-11-25T15:03:16;9.80;;;4.05;;
72797;SDS011;61084;55.816;37.036;2022-11-25T15:05:51;7.40;;;3.03;;
72797;SDS011;61084;55.816;37.036;2022-11-25T15:10:53;8.02;;;3.83;;
72797;SDS011;61084;55.816;37.036;2022-11-25T15:13:28;8.48;;;4.10;;
72797;SDS011;61084;55.816;37.036;2022-11-25T15:16:04;8.88;;;4.03;;
72797;SDS011;61084;55.816;37.036;2022-11-25T15:18:31;8.32;;;3.88;;
72797;SDS011;61084;55.816;37.036;2022-11-25T15:20:59;6.78;;;3.90;;
72797;SDS011;61084;55.816;37.036;2022-11-25T15:23:27;9.25;;;4.30;;
72797;SDS011;61084;55.816;37.036;2022-11-25T15:26:00;9.85;;;5.20;;
72797;SDS011;61084;55.816;37.036;2022-11-25T15:28:34;11.70;;;4.82;;
72797;SDS011;61084;55.816;37.036;2022-11-25T15:31:08;9.82;;;4.07;;
72797;SDS011;61084;55.816;37.036;2022-11-25T15:33:35;16.38;;;4.68;;
72797;SDS011;61084;55.816;37.036;2022-11-25T15:36:02;6.90;;;3.88;;
72797;SDS011;61084;55.816;37.036;2022-11-25T15:38:41;9.43;;;4.28;;
72797;SDS011;61084;55.816;37.036;2022-11-25T15:41:14;6.63;;;3.65;;
72797;SDS011;61084;55.816;37.036;2022-11-25T15:43:45;9.15;;;4.55;;
72797;SDS011;61084;55.816;37.036;2022-11-25T15:46:12;8.55;;;4.03;;
72797;SDS011;61084;55.816;37.036;2022-11-25T15:48:40;8.20;;;4.25;;
72797;SDS011;61084;55.816;37.036;2022-11-25T15:53:45;10.15;;;4.30;;
72797;SDS011;61084;55.816;37.036;2022-11-25T15:56:19;11.50;;;4.57;;
72797;SDS011;61084;55.816;37.036;2022-11-25T15:58:47;11.93;;;4.45;;
72797;SDS011;61084;55.816;37.036;2022-11-25T16:03:42;10.18;;;4.57;;
72797;SDS011;61084;55.816;37.036;2022-11-25T16:06:20;8.68;;;4.68;;
72797;SDS011;61084;55.816;37.036;2022-11-25T16:08:53;9.77;;;4.43;;
72797;SDS011;61084;55.816;37.036;2022-11-25T16:11:23;7.38;;;4.20;;
72797;SDS011;61084;55.816;37.036;2022-11-25T16:13:50;11.10;;;4.28;;
72797;SDS011;61084;55.816;37.036;2022-11-25T16:16:27;7.00;;;3.88;;
72797;SDS011;61084;55.816;37.036;2022-11-25T16:19:13;7.70;;;4.00;;
72797;SDS011;61084;55.816;37.036;2022-11-25T16:21:50;8.25;;;3.92;;
72797;SDS011;61084;55.816;37.036;2022-11-25T16:24:29;7.28;;;3.78;;
72797;SDS011;61084;55.816;37.036;2022-11-25T16:27:06;6.38;;;3.75;;
72797;SDS011;61084;55.816;37.036;2022-11-25T16:29:50;10.65;;;4.82;;
72797;SDS011;61084;55.816;37.036;2022-11-25T16:32:18;8.20;;;4.22;;
72797;SDS011;61084;55.816;37.036;2022-11-25T16:34:49;6.05;;;3.25;;
72797;SDS011;61084;55.816;37.036;2022-11-25T16:37:15;9.68;;;4.55;;
72797;SDS011;61084;55.816;37.036;2022-11-25T16:39:41;10.40;;;4.70;;
72797;SDS011;61084;55.816;37.036;2022-11-25T16:42:06;10.45;;;4.18;;
72797;SDS011;61084;55.816;37.036;2022-11-25T16:44:41;9.85;;;4.55;;
72797;SDS011;61084;55.816;37.036;2022-11-25T16:47:12;6.63;;;3.45;;
72797;SDS011;61084;55.816;37.036;2022-11-25T16:49:38;6.55;;;3.50;;
72797;SDS011;61084;55.816;37.036;2022-11-25T16:52:03;5.97;;;3.05;;
72797;SDS011;61084;55.816;37.036;2022-11-25T16:54:29;10.15;;;3.95;;
72797;SDS011;61084;55.816;37.036;2022-11-25T16:56:55;7.95;;;4.30;;
72797;SDS011;61084;55.816;37.036;2022-11-25T16:59:28;6.55;;;3.85;;
72797;SDS011;61084;55.816;37.036;2022-11-25T17:01:57;8.40;;;4.28;;
72797;SDS011;61084;55.816;37.036;2022-11-25T17:06:50;9.40;;;4.25;;
72797;SDS011;61084;55.816;37.036;2022-11-25T17:09:16;9.77;;;4.13;;
72797;SDS011;61084;55.816;37.036;2022-11-25T17:11:42;11.98;;;4.85;;
72797;SDS011;61084;55.816;37.036;2022-11-25T17:14:17;10.60;;;4.25;;
72797;SDS011;61084;55.816;37.036;2022-11-25T17:16:48;6.28;;;3.40;;
72797;SDS011;61084;55.816;37.036;2022-11-25T17:19:14;9.90;;;4.53;;
72797;SDS011;61084;55.816;37.036;2022-11-25T17:21:41;8.82;;;3.83;;
72797;SDS011;61084;55.816;37.036;2022-11-25T17:24:13;9.18;;;3.63;;
72797;SDS011;61084;55.816;37.036;2022-11-25T17:26:42;4.90;;;2.80;;
72797;SDS011;61084;55.816;37.036;2022-11-25T17:29:14;9.07;;;4.00;;
72797;SDS011;61084;55.816;37.036;2022-11-25T17:31:43;8.55;;;3.97;;